sensor_id;sensor_type;location;lat;lon;timestamp;P1;durP1;ratioP1;P2;durP2;ratioP2
10144;SDS011;5113;41.822;23.564;2022-08-03T00:00:39;4.57;;;4.27;;
10144;SDS011;5113;41.822;23.564;2022-08-03T00:03:46;4.50;;;4.20;;
10144;SDS011;5113;41.822;23.564;2022-08-03T00:06:53;4.40;;;4.13;;
10144;SDS011;5113;41.822;23.564;2022-08-03T00:10:00;3.60;;;3.40;;
10144;SDS011;5113;41.822;23.564;2022-08-03T00:13:06;4.00;;;3.70;;
10144;SDS011;5113;41.822;23.564;2022-08-03T00:16:13;3.60;;;3.40;;
10144;SDS011;5113;41.822;23.564;2022-08-03T00:19:20;3.67;;;3.37;;
10144;SDS011;5113;41.822;23.564;2022-08-03T00:22:28;3.60;;;3.40;;
10144;SDS011;5113;41.822;23.564;2022-08-03T00:25:34;3.87;;;3.57;;
10144;SDS011;5113;41.822;23.564;2022-08-03T00:28:41;4.40;;;4.13;;
10144;SDS011;5113;41.822;23.564;2022-08-03T00:31:48;6.10;;;4.20;;
10144;SDS011;5113;41.822;23.564;2022-08-03T00:35:03;5.03;;;4.73;;
10144;SDS011;5113;41.822;23.564;2022-08-03T00:38:15;4.53;;;4.33;;
10144;SDS011;5113;41.822;23.564;2022-08-03T00:41:22;4.37;;;4.07;;
10144;SDS011;5113;41.822;23.564;2022-08-03T00:44:28;5.03;;;4.73;;
10144;SDS011;5113;41.822;23.564;2022-08-03T00:47:35;5.00;;;4.60;;
10144;SDS011;5113;41.822;23.564;2022-08-03T00:50:42;7.73;;;6.77;;
10144;SDS011;5113;41.822;23.564;2022-08-03T00:53:49;4.87;;;4.47;;
10144;SDS011;5113;41.822;23.564;2022-08-03T00:56:56;4.27;;;4.07;;
10144;SDS011;5113;41.822;23.564;2022-08-03T01:00:06;11.53;;;10.97;;
10144;SDS011;5113;41.822;23.564;2022-08-03T01:03:14;4.67;;;4.37;;
10144;SDS011;5113;41.822;23.564;2022-08-03T01:06:22;4.53;;;4.33;;
10144;SDS011;5113;41.822;23.564;2022-08-03T01:09:47;5.53;;;4.67;;
10144;SDS011;5113;41.822;23.564;2022-08-03T01:13:06;4.27;;;4.00;;
10144;SDS011;5113;41.822;23.564;2022-08-03T01:16:49;4.40;;;4.20;;
10144;SDS011;5113;41.822;23.564;2022-08-03T01:20:03;3.63;;;3.37;;
10144;SDS011;5113;41.822;23.564;2022-08-03T01:26:54;4.50;;;4.30;;
10144;SDS011;5113;41.822;23.564;2022-08-03T01:30:11;4.27;;;4.07;;
10144;SDS011;5113;41.822;23.564;2022-08-03T01:33:19;6.47;;;5.80;;
10144;SDS011;5113;41.822;23.564;2022-08-03T01:36:29;7.70;;;6.50;;
10144;SDS011;5113;41.822;23.564;2022-08-03T01:39:39;3.63;;;3.40;;
10144;SDS011;5113;41.822;23.564;2022-08-03T01:42:47;3.47;;;3.27;;
10144;SDS011;5113;41.822;23.564;2022-08-03T01:45:57;8.40;;;8.00;;
10144;SDS011;5113;41.822;23.564;2022-08-03T01:49:06;3.63;;;3.43;;
10144;SDS011;5113;41.822;23.564;2022-08-03T01:52:16;3.90;;;3.63;;
10144;SDS011;5113;41.822;23.564;2022-08-03T01:55:24;3.80;;;3.60;;
10144;SDS011;5113;41.822;23.564;2022-08-03T01:58:32;3.63;;;3.33;;
10144;SDS011;5113;41.822;23.564;2022-08-03T02:01:42;3.83;;;3.63;;
10144;SDS011;5113;41.822;23.564;2022-08-03T02:05:11;3.10;;;3.00;;
10144;SDS011;5113;41.822;23.564;2022-08-03T02:08:19;3.50;;;3.30;;
10144;SDS011;5113;41.822;23.564;2022-08-03T02:11:29;3.40;;;3.20;;
10144;SDS011;5113;41.822;23.564;2022-08-03T02:14:37;3.77;;;3.67;;
10144;SDS011;5113;41.822;23.564;2022-08-03T02:17:47;6.17;;;5.87;;
10144;SDS011;5113;41.822;23.564;2022-08-03T02:20:55;6.07;;;3.67;;
10144;SDS011;5113;41.822;23.564;2022-08-03T02:24:07;4.10;;;3.90;;
10144;SDS011;5113;41.822;23.564;2022-08-03T02:27:15;7.80;;;7.40;;
10144;SDS011;5113;41.822;23.564;2022-08-03T02:30:27;4.50;;;4.30;;
10144;SDS011;5113;41.822;23.564;2022-08-03T02:33:42;3.80;;;3.60;;
10144;SDS011;5113;41.822;23.564;2022-08-03T02:36:53;4.30;;;4.00;;
10144;SDS011;5113;41.822;23.564;2022-08-03T02:40:05;4.63;;;4.33;;
10144;SDS011;5113;41.822;23.564;2022-08-03T02:43:16;4.70;;;4.30;;
10144;SDS011;5113;41.822;23.564;2022-08-03T02:46:27;4.20;;;4.00;;
10144;SDS011;5113;41.822;23.564;2022-08-03T02:49:39;4.70;;;4.40;;
10144;SDS011;5113;41.822;23.564;2022-08-03T02:52:55;4.20;;;4.00;;
10144;SDS011;5113;41.822;23.564;2022-08-03T02:56:03;5.50;;;4.40;;
10144;SDS011;5113;41.822;23.564;2022-08-03T02:59:12;11.83;;;11.13;;
10144;SDS011;5113;41.822;23.564;2022-08-03T03:02:21;4.40;;;4.13;;
10144;SDS011;5113;41.822;23.564;2022-08-03T03:05:30;4.33;;;4.10;;
10144;SDS011;5113;41.822;23.564;2022-08-03T03:08:57;3.90;;;3.70;;
10144;SDS011;5113;41.822;23.564;2022-08-03T03:12:06;3.77;;;3.57;;
10144;SDS011;5113;41.822;23.564;2022-08-03T03:15:14;4.40;;;4.10;;
10144;SDS011;5113;41.822;23.564;2022-08-03T03:18:21;4.73;;;4.30;;
10144;SDS011;5113;41.822;23.564;2022-08-03T03:21:30;5.47;;;4.97;;
10144;SDS011;5113;41.822;23.564;2022-08-03T03:24:38;3.37;;;3.10;;
10144;SDS011;5113;41.822;23.564;2022-08-03T03:27:46;3.30;;;3.10;;
10144;SDS011;5113;41.822;23.564;2022-08-03T03:30:54;3.57;;;3.37;;
10144;SDS011;5113;41.822;23.564;2022-08-03T03:34:01;4.03;;;3.73;;
10144;SDS011;5113;41.822;23.564;2022-08-03T03:37:11;3.57;;;3.37;;
10144;SDS011;5113;41.822;23.564;2022-08-03T03:40:18;7.53;;;7.03;;
10144;SDS011;5113;41.822;23.564;2022-08-03T03:43:25;3.30;;;3.10;;
10144;SDS011;5113;41.822;23.564;2022-08-03T03:46:32;3.47;;;3.20;;
10144;SDS011;5113;41.822;23.564;2022-08-03T03:49:39;9.17;;;8.70;;
10144;SDS011;5113;41.822;23.564;2022-08-03T03:52:50;3.70;;;3.47;;
10144;SDS011;5113;41.822;23.564;2022-08-03T03:55:57;4.27;;;3.97;;
10144;SDS011;5113;41.822;23.564;2022-08-03T03:59:06;4.90;;;4.50;;
10144;SDS011;5113;41.822;23.564;2022-08-03T04:02:13;4.57;;;4.27;;
10144;SDS011;5113;41.822;23.564;2022-08-03T04:05:20;4.40;;;4.10;;
10144;SDS011;5113;41.822;23.564;2022-08-03T04:08:50;4.10;;;3.90;;
10144;SDS011;5113;41.822;23.564;2022-08-03T04:12:17;4.67;;;4.37;;
10144;SDS011;5113;41.822;23.564;2022-08-03T04:15:28;3.87;;;3.67;;
10144;SDS011;5113;41.822;23.564;2022-08-03T04:18:38;4.53;;;3.87;;
10144;SDS011;5113;41.822;23.564;2022-08-03T04:21:47;4.43;;;4.13;;
10144;SDS011;5113;41.822;23.564;2022-08-03T04:25:02;5.50;;;5.00;;
10144;SDS011;5113;41.822;23.564;2022-08-03T04:28:13;5.20;;;4.80;;
10144;SDS011;5113;41.822;23.564;2022-08-03T04:31:34;4.77;;;4.37;;
10144;SDS011;5113;41.822;23.564;2022-08-03T04:34:43;4.77;;;4.47;;
10144;SDS011;5113;41.822;23.564;2022-08-03T04:37:50;5.20;;;4.80;;
10144;SDS011;5113;41.822;23.564;2022-08-03T04:41:00;4.97;;;4.47;;
10144;SDS011;5113;41.822;23.564;2022-08-03T04:44:07;6.17;;;4.30;;
10144;SDS011;5113;41.822;23.564;2022-08-03T04:47:15;5.33;;;4.83;;
10144;SDS011;5113;41.822;23.564;2022-08-03T04:50:22;6.23;;;5.63;;
10144;SDS011;5113;41.822;23.564;2022-08-03T04:53:31;5.10;;;4.73;;
10144;SDS011;5113;41.822;23.564;2022-08-03T04:56:40;5.87;;;5.37;;
10144;SDS011;5113;41.822;23.564;2022-08-03T04:59:51;6.87;;;5.23;;
10144;SDS011;5113;41.822;23.564;2022-08-03T05:03:07;5.27;;;4.97;;
10144;SDS011;5113;41.822;23.564;2022-08-03T05:06:27;5.03;;;4.53;;
10144;SDS011;5113;41.822;23.564;2022-08-03T05:09:34;10.77;;;4.80;;
10144;SDS011;5113;41.822;23.564;2022-08-03T05:12:57;4.93;;;4.47;;
10144;SDS011;5113;41.822;23.564;2022-08-03T05:16:08;5.23;;;4.83;;
10144;SDS011;5113;41.822;23.564;2022-08-03T05:19:17;4.67;;;4.27;;
10144;SDS011;5113;41.822;23.564;2022-08-03T05:22:24;4.93;;;4.53;;
10144;SDS011;5113;41.822;23.564;2022-08-03T05:25:36;4.73;;;4.43;;
10144;SDS011;5113;41.822;23.564;2022-08-03T05:28:54;6.13;;;4.70;;
10144;SDS011;5113;41.822;23.564;2022-08-03T05:32:02;4.90;;;4.50;;
10144;SDS011;5113;41.822;23.564;2022-08-03T05:35:11;4.57;;;4.27;;
10144;SDS011;5113;41.822;23.564;2022-08-03T05:38:38;4.30;;;4.00;;
10144;SDS011;5113;41.822;23.564;2022-08-03T05:41:49;4.83;;;4.43;;
10144;SDS011;5113;41.822;23.564;2022-08-03T05:44:57;4.83;;;4.43;;
10144;SDS011;5113;41.822;23.564;2022-08-03T05:48:16;4.63;;;4.33;;
10144;SDS011;5113;41.822;23.564;2022-08-03T05:51:24;4.40;;;4.10;;
10144;SDS011;5113;41.822;23.564;2022-08-03T05:54:32;4.37;;;4.07;;
10144;SDS011;5113;41.822;23.564;2022-08-03T05:57:59;4.93;;;4.53;;
10144;SDS011;5113;41.822;23.564;2022-08-03T06:01:09;4.63;;;4.33;;
10144;SDS011;5113;41.822;23.564;2022-08-03T06:04:16;4.63;;;3.70;;
10144;SDS011;5113;41.822;23.564;2022-08-03T06:07:30;4.07;;;3.70;;
10144;SDS011;5113;41.822;23.564;2022-08-03T06:10:39;4.17;;;3.77;;
10144;SDS011;5113;41.822;23.564;2022-08-03T06:13:45;12.10;;;11.27;;
10144;SDS011;5113;41.822;23.564;2022-08-03T06:17:07;5.80;;;4.77;;
10144;SDS011;5113;41.822;23.564;2022-08-03T06:20:15;5.03;;;4.63;;
10144;SDS011;5113;41.822;23.564;2022-08-03T06:23:24;5.00;;;4.70;;
10144;SDS011;5113;41.822;23.564;2022-08-03T06:26:50;6.40;;;4.00;;
10144;SDS011;5113;41.822;23.564;2022-08-03T06:29:58;4.43;;;3.97;;
10144;SDS011;5113;41.822;23.564;2022-08-03T06:33:07;5.40;;;3.70;;
10144;SDS011;5113;41.822;23.564;2022-08-03T06:36:14;4.13;;;3.93;;
10144;SDS011;5113;41.822;23.564;2022-08-03T06:39:21;3.80;;;3.60;;
10144;SDS011;5113;41.822;23.564;2022-08-03T06:42:31;3.90;;;3.70;;
10144;SDS011;5113;41.822;23.564;2022-08-03T06:45:37;7.50;;;7.10;;
10144;SDS011;5113;41.822;23.564;2022-08-03T06:48:47;3.57;;;3.37;;
10144;SDS011;5113;41.822;23.564;2022-08-03T06:51:54;4.23;;;3.93;;
10144;SDS011;5113;41.822;23.564;2022-08-03T06:55:10;7.73;;;7.13;;
10144;SDS011;5113;41.822;23.564;2022-08-03T06:58:16;3.77;;;3.33;;
10144;SDS011;5113;41.822;23.564;2022-08-03T07:01:23;3.60;;;3.40;;
10144;SDS011;5113;41.822;23.564;2022-08-03T07:04:33;5.70;;;5.30;;
10144;SDS011;5113;41.822;23.564;2022-08-03T07:07:42;4.00;;;3.70;;
10144;SDS011;5113;41.822;23.564;2022-08-03T07:10:53;3.80;;;3.50;;
10144;SDS011;5113;41.822;23.564;2022-08-03T07:14:04;9.23;;;8.73;;
10144;SDS011;5113;41.822;23.564;2022-08-03T07:17:11;3.53;;;3.33;;
10144;SDS011;5113;41.822;23.564;2022-08-03T07:20:24;7.30;;;6.90;;
10144;SDS011;5113;41.822;23.564;2022-08-03T07:23:36;3.53;;;3.23;;
10144;SDS011;5113;41.822;23.564;2022-08-03T07:26:45;3.20;;;3.00;;
10144;SDS011;5113;41.822;23.564;2022-08-03T07:29:52;6.57;;;6.20;;
10144;SDS011;5113;41.822;23.564;2022-08-03T07:33:01;2.97;;;2.77;;
10144;SDS011;5113;41.822;23.564;2022-08-03T07:36:12;15.27;;;14.57;;
10144;SDS011;5113;41.822;23.564;2022-08-03T07:39:19;10.60;;;10.10;;
10144;SDS011;5113;41.822;23.564;2022-08-03T07:42:27;3.05;;;2.85;;
10144;SDS011;5113;41.822;23.564;2022-08-03T07:45:35;2.85;;;2.67;;
10144;SDS011;5113;41.822;23.564;2022-08-03T07:48:41;7.18;;;6.78;;
10144;SDS011;5113;41.822;23.564;2022-08-03T07:51:51;33.63;;;32.03;;
10144;SDS011;5113;41.822;23.564;2022-08-03T07:55:11;2.75;;;2.65;;
10144;SDS011;5113;41.822;23.564;2022-08-03T07:58:18;3.30;;;3.10;;
10144;SDS011;5113;41.822;23.564;2022-08-03T08:01:30;3.80;;;3.60;;
10144;SDS011;5113;41.822;23.564;2022-08-03T08:04:40;3.25;;;3.13;;
10144;SDS011;5113;41.822;23.564;2022-08-03T08:07:48;3.25;;;3.15;;
10144;SDS011;5113;41.822;23.564;2022-08-03T08:10:55;7.25;;;6.95;;
10144;SDS011;5113;41.822;23.564;2022-08-03T08:14:02;3.08;;;2.97;;
10144;SDS011;5113;41.822;23.564;2022-08-03T08:17:09;3.10;;;3.00;;
10144;SDS011;5113;41.822;23.564;2022-08-03T08:20:16;3.10;;;2.90;;
10144;SDS011;5113;41.822;23.564;2022-08-03T08:23:33;3.22;;;3.03;;
10144;SDS011;5113;41.822;23.564;2022-08-03T08:26:47;2.67;;;2.58;;
10144;SDS011;5113;41.822;23.564;2022-08-03T08:29:54;2.60;;;2.50;;
10144;SDS011;5113;41.822;23.564;2022-08-03T08:33:10;2.85;;;2.75;;
10144;SDS011;5113;41.822;23.564;2022-08-03T08:36:26;4.53;;;2.92;;
10144;SDS011;5113;41.822;23.564;2022-08-03T08:39:34;3.15;;;3.00;;
10144;SDS011;5113;41.822;23.564;2022-08-03T08:42:41;3.28;;;3.13;;
10144;SDS011;5113;41.822;23.564;2022-08-03T08:46:02;2.70;;;2.60;;
10144;SDS011;5113;41.822;23.564;2022-08-03T08:49:09;2.88;;;2.78;;
10144;SDS011;5113;41.822;23.564;2022-08-03T08:52:17;2.60;;;2.50;;
10144;SDS011;5113;41.822;23.564;2022-08-03T08:55:37;5.80;;;4.82;;
10144;SDS011;5113;41.822;23.564;2022-08-03T08:59:03;9.90;;;5.68;;
10144;SDS011;5113;41.822;23.564;2022-08-03T09:02:10;4.15;;;3.85;;
10144;SDS011;5113;41.822;23.564;2022-08-03T09:05:17;3.17;;;2.97;;
10144;SDS011;5113;41.822;23.564;2022-08-03T09:08:46;2.92;;;2.83;;
10144;SDS011;5113;41.822;23.564;2022-08-03T09:11:54;3.17;;;3.08;;
10144;SDS011;5113;41.822;23.564;2022-08-03T09:19:10;3.60;;;3.40;;
10144;SDS011;5113;41.822;23.564;2022-08-03T09:22:18;3.30;;;3.20;;
10144;SDS011;5113;41.822;23.564;2022-08-03T09:25:30;3.33;;;3.13;;
10144;SDS011;5113;41.822;23.564;2022-08-03T09:28:39;3.50;;;3.30;;
10144;SDS011;5113;41.822;23.564;2022-08-03T09:32:06;3.42;;;3.30;;
10144;SDS011;5113;41.822;23.564;2022-08-03T09:35:13;3.20;;;3.10;;
10144;SDS011;5113;41.822;23.564;2022-08-03T09:38:39;3.60;;;3.28;;
10144;SDS011;5113;41.822;23.564;2022-08-03T09:41:46;3.42;;;3.28;;
10144;SDS011;5113;41.822;23.564;2022-08-03T09:44:55;2.90;;;2.80;;
10144;SDS011;5113;41.822;23.564;2022-08-03T09:48:18;3.25;;;3.15;;
10144;SDS011;5113;41.822;23.564;2022-08-03T09:51:27;2.80;;;2.70;;
10144;SDS011;5113;41.822;23.564;2022-08-03T09:54:53;3.15;;;3.05;;
10144;SDS011;5113;41.822;23.564;2022-08-03T09:58:04;3.25;;;3.15;;
10144;SDS011;5113;41.822;23.564;2022-08-03T10:01:14;2.60;;;2.50;;
10144;SDS011;5113;41.822;23.564;2022-08-03T10:04:28;3.13;;;2.95;;
10144;SDS011;5113;41.822;23.564;2022-08-03T10:07:41;3.05;;;2.85;;
10144;SDS011;5113;41.822;23.564;2022-08-03T10:10:50;2.92;;;2.80;;
10144;SDS011;5113;41.822;23.564;2022-08-03T10:14:03;4.15;;;2.80;;
10144;SDS011;5113;41.822;23.564;2022-08-03T10:17:11;2.65;;;2.55;;
10144;SDS011;5113;41.822;23.564;2022-08-03T10:20:18;2.80;;;2.70;;
10144;SDS011;5113;41.822;23.564;2022-08-03T10:23:25;3.35;;;3.05;;
10144;SDS011;5113;41.822;23.564;2022-08-03T10:26:37;2.88;;;2.67;;
10144;SDS011;5113;41.822;23.564;2022-08-03T10:29:54;2.97;;;2.88;;
10144;SDS011;5113;41.822;23.564;2022-08-03T10:33:08;3.10;;;3.00;;
10144;SDS011;5113;41.822;23.564;2022-08-03T10:36:42;2.88;;;2.78;;
10144;SDS011;5113;41.822;23.564;2022-08-03T10:39:50;3.38;;;3.28;;
10144;SDS011;5113;41.822;23.564;2022-08-03T10:43:02;3.45;;;3.25;;
10144;SDS011;5113;41.822;23.564;2022-08-03T10:46:12;3.30;;;3.20;;
10144;SDS011;5113;41.822;23.564;2022-08-03T10:49:24;3.67;;;3.47;;
10144;SDS011;5113;41.822;23.564;2022-08-03T10:52:52;3.33;;;3.13;;
10144;SDS011;5113;41.822;23.564;2022-08-03T10:55:59;3.60;;;3.40;;
10144;SDS011;5113;41.822;23.564;2022-08-03T10:59:56;3.28;;;3.08;;
10144;SDS011;5113;41.822;23.564;2022-08-03T11:03:10;5.85;;;3.42;;
10144;SDS011;5113;41.822;23.564;2022-08-03T11:06:20;3.47;;;3.35;;
10144;SDS011;5113;41.822;23.564;2022-08-03T11:09:28;7.25;;;6.88;;
10144;SDS011;5113;41.822;23.564;2022-08-03T11:13:05;3.72;;;3.53;;
10144;SDS011;5113;41.822;23.564;2022-08-03T11:16:17;3.10;;;3.00;;
10144;SDS011;5113;41.822;23.564;2022-08-03T11:19:26;3.47;;;3.28;;
10144;SDS011;5113;41.822;23.564;2022-08-03T11:23:01;3.10;;;3.00;;
10144;SDS011;5113;41.822;23.564;2022-08-03T11:26:08;3.03;;;2.92;;
10144;SDS011;5113;41.822;23.564;2022-08-03T11:29:27;3.15;;;3.00;;
10144;SDS011;5113;41.822;23.564;2022-08-03T11:32:55;7.70;;;7.40;;
10144;SDS011;5113;41.822;23.564;2022-08-03T11:36:03;3.00;;;2.90;;
10144;SDS011;5113;41.822;23.564;2022-08-03T11:39:13;3.17;;;3.03;;
10144;SDS011;5113;41.822;23.564;2022-08-03T11:42:39;3.45;;;2.70;;
10144;SDS011;5113;41.822;23.564;2022-08-03T11:45:56;3.35;;;3.15;;
10144;SDS011;5113;41.822;23.564;2022-08-03T11:49:04;3.28;;;2.88;;
10144;SDS011;5113;41.822;23.564;2022-08-03T11:52:15;3.10;;;2.90;;
10144;SDS011;5113;41.822;23.564;2022-08-03T11:55:32;6.45;;;6.15;;
10144;SDS011;5113;41.822;23.564;2022-08-03T11:58:45;2.75;;;2.65;;
10144;SDS011;5113;41.822;23.564;2022-08-03T12:02:13;2.80;;;2.70;;
10144;SDS011;5113;41.822;23.564;2022-08-03T12:05:24;2.65;;;2.55;;
10144;SDS011;5113;41.822;23.564;2022-08-03T12:08:38;3.00;;;2.90;;
10144;SDS011;5113;41.822;23.564;2022-08-03T12:11:46;2.90;;;2.80;;
10144;SDS011;5113;41.822;23.564;2022-08-03T12:15:04;3.10;;;3.00;;
10144;SDS011;5113;41.822;23.564;2022-08-03T12:18:14;6.38;;;6.07;;
10144;SDS011;5113;41.822;23.564;2022-08-03T12:21:21;2.90;;;2.80;;
10144;SDS011;5113;41.822;23.564;2022-08-03T12:24:38;5.40;;;3.20;;
10144;SDS011;5113;41.822;23.564;2022-08-03T12:27:46;2.72;;;2.63;;
10144;SDS011;5113;41.822;23.564;2022-08-03T12:30:52;3.30;;;3.20;;
10144;SDS011;5113;41.822;23.564;2022-08-03T12:34:00;3.47;;;3.28;;
10144;SDS011;5113;41.822;23.564;2022-08-03T12:37:08;2.90;;;2.80;;
10144;SDS011;5113;41.822;23.564;2022-08-03T12:40:25;3.10;;;2.95;;
10144;SDS011;5113;41.822;23.564;2022-08-03T12:43:32;4.00;;;3.77;;
10144;SDS011;5113;41.822;23.564;2022-08-03T12:46:42;4.00;;;3.70;;
10144;SDS011;5113;41.822;23.564;2022-08-03T12:49:52;3.20;;;3.10;;
10144;SDS011;5113;41.822;23.564;2022-08-03T12:53:00;3.13;;;3.03;;
10144;SDS011;5113;41.822;23.564;2022-08-03T12:56:12;2.90;;;2.80;;
10144;SDS011;5113;41.822;23.564;2022-08-03T12:59:25;3.10;;;3.00;;
10144;SDS011;5113;41.822;23.564;2022-08-03T13:06:51;3.20;;;2.90;;
10144;SDS011;5113;41.822;23.564;2022-08-03T13:10:07;4.13;;;3.83;;
10144;SDS011;5113;41.822;23.564;2022-08-03T13:13:14;7.93;;;7.57;;
10144;SDS011;5113;41.822;23.564;2022-08-03T13:16:24;3.50;;;2.67;;
10144;SDS011;5113;41.822;23.564;2022-08-03T13:19:30;2.87;;;2.67;;
10144;SDS011;5113;41.822;23.564;2022-08-03T13:22:38;6.07;;;5.67;;
10144;SDS011;5113;41.822;23.564;2022-08-03T13:25:46;13.70;;;7.90;;
10144;SDS011;5113;41.822;23.564;2022-08-03T13:28:59;6.30;;;5.53;;
10144;SDS011;5113;41.822;23.564;2022-08-03T13:32:06;4.30;;;3.67;;
10144;SDS011;5113;41.822;23.564;2022-08-03T13:35:12;4.30;;;3.13;;
10144;SDS011;5113;41.822;23.564;2022-08-03T13:38:21;2.73;;;2.53;;
10144;SDS011;5113;41.822;23.564;2022-08-03T13:41:30;3.23;;;3.03;;
10144;SDS011;5113;41.822;23.564;2022-08-03T13:44:37;3.60;;;3.40;;
10144;SDS011;5113;41.822;23.564;2022-08-03T13:47:44;3.17;;;2.97;;
10144;SDS011;5113;41.822;23.564;2022-08-03T13:50:50;3.30;;;3.10;;
10144;SDS011;5113;41.822;23.564;2022-08-03T13:53:58;3.53;;;3.33;;
10144;SDS011;5113;41.822;23.564;2022-08-03T13:57:05;3.40;;;3.20;;
10144;SDS011;5113;41.822;23.564;2022-08-03T14:00:31;4.17;;;3.93;;
10144;SDS011;5113;41.822;23.564;2022-08-03T14:03:37;10.63;;;9.93;;
10144;SDS011;5113;41.822;23.564;2022-08-03T14:06:44;7.53;;;6.83;;
10144;SDS011;5113;41.822;23.564;2022-08-03T14:09:52;6.23;;;5.63;;
10144;SDS011;5113;41.822;23.564;2022-08-03T14:12:58;10.30;;;9.70;;
10144;SDS011;5113;41.822;23.564;2022-08-03T14:16:05;5.10;;;4.70;;
10144;SDS011;5113;41.822;23.564;2022-08-03T14:19:13;6.03;;;5.63;;
10144;SDS011;5113;41.822;23.564;2022-08-03T14:22:28;8.67;;;6.60;;
10144;SDS011;5113;41.822;23.564;2022-08-03T14:25:35;17.03;;;11.50;;
10144;SDS011;5113;41.822;23.564;2022-08-03T14:28:53;9.77;;;6.77;;
10144;SDS011;5113;41.822;23.564;2022-08-03T14:31:59;6.50;;;6.00;;
10144;SDS011;5113;41.822;23.564;2022-08-03T14:35:13;13.77;;;9.77;;
10144;SDS011;5113;41.822;23.564;2022-08-03T14:38:20;9.43;;;8.57;;
10144;SDS011;5113;41.822;23.564;2022-08-03T14:41:28;8.10;;;7.30;;
10144;SDS011;5113;41.822;23.564;2022-08-03T14:44:34;8.27;;;7.57;;
10144;SDS011;5113;41.822;23.564;2022-08-03T14:47:40;7.00;;;6.50;;
10144;SDS011;5113;41.822;23.564;2022-08-03T14:51:07;6.73;;;6.13;;
10144;SDS011;5113;41.822;23.564;2022-08-03T14:54:13;11.23;;;10.47;;
10144;SDS011;5113;41.822;23.564;2022-08-03T14:57:23;9.03;;;8.13;;
10144;SDS011;5113;41.822;23.564;2022-08-03T15:00:29;10.87;;;9.73;;
10144;SDS011;5113;41.822;23.564;2022-08-03T15:03:36;14.60;;;13.37;;
10144;SDS011;5113;41.822;23.564;2022-08-03T15:06:42;10.10;;;9.10;;
10144;SDS011;5113;41.822;23.564;2022-08-03T15:09:54;10.90;;;9.07;;
10144;SDS011;5113;41.822;23.564;2022-08-03T15:13:01;8.13;;;7.50;;
10144;SDS011;5113;41.822;23.564;2022-08-03T15:16:08;8.93;;;8.17;;
10144;SDS011;5113;41.822;23.564;2022-08-03T15:19:14;6.93;;;6.27;;
10144;SDS011;5113;41.822;23.564;2022-08-03T15:22:41;5.47;;;5.07;;
10144;SDS011;5113;41.822;23.564;2022-08-03T15:25:47;5.57;;;5.07;;
10144;SDS011;5113;41.822;23.564;2022-08-03T15:29:15;6.53;;;6.03;;
10144;SDS011;5113;41.822;23.564;2022-08-03T15:32:41;9.43;;;8.77;;
10144;SDS011;5113;41.822;23.564;2022-08-03T15:35:47;4.87;;;4.47;;
10144;SDS011;5113;41.822;23.564;2022-08-03T15:38:54;5.50;;;5.10;;
10144;SDS011;5113;41.822;23.564;2022-08-03T15:42:00;5.90;;;5.40;;
10144;SDS011;5113;41.822;23.564;2022-08-03T15:45:08;8.80;;;8.20;;
10144;SDS011;5113;41.822;23.564;2022-08-03T15:48:16;11.97;;;11.27;;
10144;SDS011;5113;41.822;23.564;2022-08-03T15:51:29;17.80;;;16.90;;
10144;SDS011;5113;41.822;23.564;2022-08-03T15:54:36;18.73;;;17.73;;
10144;SDS011;5113;41.822;23.564;2022-08-03T15:57:42;21.10;;;19.97;;
10144;SDS011;5113;41.822;23.564;2022-08-03T16:01:10;16.00;;;15.10;;
10144;SDS011;5113;41.822;23.564;2022-08-03T16:04:22;20.57;;;19.47;;
10144;SDS011;5113;41.822;23.564;2022-08-03T16:07:28;19.80;;;18.70;;
10144;SDS011;5113;41.822;23.564;2022-08-03T16:11:07;7.90;;;7.30;;
10144;SDS011;5113;41.822;23.564;2022-08-03T16:14:13;17.27;;;16.37;;
10144;SDS011;5113;41.822;23.564;2022-08-03T16:17:41;14.83;;;13.77;;
10144;SDS011;5113;41.822;23.564;2022-08-03T16:20:48;5.00;;;4.40;;
10144;SDS011;5113;41.822;23.564;2022-08-03T16:23:54;13.60;;;12.90;;
10144;SDS011;5113;41.822;23.564;2022-08-03T16:27:00;14.87;;;13.93;;
10144;SDS011;5113;41.822;23.564;2022-08-03T16:30:07;8.60;;;8.10;;
10144;SDS011;5113;41.822;23.564;2022-08-03T16:33:16;3.67;;;3.33;;
10144;SDS011;5113;41.822;23.564;2022-08-03T16:36:23;4.23;;;3.83;;
10144;SDS011;5113;41.822;23.564;2022-08-03T16:39:38;13.43;;;12.73;;
10144;SDS011;5113;41.822;23.564;2022-08-03T16:42:44;15.40;;;14.57;;
10144;SDS011;5113;41.822;23.564;2022-08-03T16:45:51;5.93;;;5.53;;
10144;SDS011;5113;41.822;23.564;2022-08-03T16:48:59;4.33;;;4.03;;
10144;SDS011;5113;41.822;23.564;2022-08-03T16:52:06;15.70;;;14.87;;
10144;SDS011;5113;41.822;23.564;2022-08-03T16:55:16;16.37;;;15.53;;
10144;SDS011;5113;41.822;23.564;2022-08-03T16:58:42;17.27;;;16.47;;
10144;SDS011;5113;41.822;23.564;2022-08-03T17:01:53;15.63;;;14.70;;
10144;SDS011;5113;41.822;23.564;2022-08-03T17:05:01;16.87;;;15.90;;
10144;SDS011;5113;41.822;23.564;2022-08-03T17:08:27;20.33;;;19.07;;
10144;SDS011;5113;41.822;23.564;2022-08-03T17:11:39;21.80;;;20.20;;
10144;SDS011;5113;41.822;23.564;2022-08-03T17:14:50;22.37;;;20.77;;
10144;SDS011;5113;41.822;23.564;2022-08-03T17:17:59;20.53;;;19.27;;
10144;SDS011;5113;41.822;23.564;2022-08-03T17:21:11;19.03;;;17.90;;
10144;SDS011;5113;41.822;23.564;2022-08-03T17:24:22;6.07;;;5.57;;
10144;SDS011;5113;41.822;23.564;2022-08-03T17:27:38;5.63;;;5.13;;
10144;SDS011;5113;41.822;23.564;2022-08-03T17:31:07;17.80;;;16.80;;
10144;SDS011;5113;41.822;23.564;2022-08-03T17:34:35;12.17;;;11.20;;
10144;SDS011;5113;41.822;23.564;2022-08-03T17:37:44;12.40;;;11.60;;
10144;SDS011;5113;41.822;23.564;2022-08-03T17:41:02;7.67;;;7.07;;
10144;SDS011;5113;41.822;23.564;2022-08-03T17:44:14;7.07;;;6.57;;
10144;SDS011;5113;41.822;23.564;2022-08-03T17:47:41;8.70;;;8.00;;
10144;SDS011;5113;41.822;23.564;2022-08-03T17:50:49;12.10;;;8.83;;
10144;SDS011;5113;41.822;23.564;2022-08-03T17:54:02;24.03;;;17.23;;
10144;SDS011;5113;41.822;23.564;2022-08-03T17:57:23;11.00;;;9.00;;
10144;SDS011;5113;41.822;23.564;2022-08-03T18:00:53;9.47;;;7.87;;
10144;SDS011;5113;41.822;23.564;2022-08-03T18:04:41;6.53;;;5.93;;
10144;SDS011;5113;41.822;23.564;2022-08-03T18:08:00;7.57;;;6.77;;
10144;SDS011;5113;41.822;23.564;2022-08-03T18:11:16;8.70;;;7.70;;
10144;SDS011;5113;41.822;23.564;2022-08-03T18:14:28;8.87;;;6.77;;
10144;SDS011;5113;41.822;23.564;2022-08-03T18:17:42;8.77;;;7.17;;
10144;SDS011;5113;41.822;23.564;2022-08-03T18:21:05;7.27;;;6.57;;
10144;SDS011;5113;41.822;23.564;2022-08-03T18:24:20;7.80;;;6.30;;
10144;SDS011;5113;41.822;23.564;2022-08-03T18:27:31;6.07;;;5.37;;
10144;SDS011;5113;41.822;23.564;2022-08-03T18:30:51;5.67;;;5.17;;
10144;SDS011;5113;41.822;23.564;2022-08-03T18:33:58;15.73;;;12.67;;
10144;SDS011;5113;41.822;23.564;2022-08-03T18:37:27;18.97;;;13.10;;
10144;SDS011;5113;41.822;23.564;2022-08-03T18:40:54;9.60;;;7.17;;
10144;SDS011;5113;41.822;23.564;2022-08-03T18:44:03;7.63;;;6.57;;
10144;SDS011;5113;41.822;23.564;2022-08-03T18:47:33;8.87;;;6.97;;
10144;SDS011;5113;41.822;23.564;2022-08-03T18:51:00;59.20;;;26.83;;
10144;SDS011;5113;41.822;23.564;2022-08-03T18:54:11;22.60;;;13.97;;
10144;SDS011;5113;41.822;23.564;2022-08-03T18:57:43;10.30;;;8.70;;
10144;SDS011;5113;41.822;23.564;2022-08-03T19:00:57;11.70;;;9.07;;
10144;SDS011;5113;41.822;23.564;2022-08-03T19:04:32;10.30;;;6.60;;
10144;SDS011;5113;41.822;23.564;2022-08-03T19:07:47;7.53;;;6.20;;
10144;SDS011;5113;41.822;23.564;2022-08-03T19:11:03;6.47;;;5.67;;
10144;SDS011;5113;41.822;23.564;2022-08-03T19:14:13;5.27;;;4.77;;
10144;SDS011;5113;41.822;23.564;2022-08-03T19:17:23;5.07;;;4.67;;
10144;SDS011;5113;41.822;23.564;2022-08-03T19:20:33;5.07;;;4.60;;
10144;SDS011;5113;41.822;23.564;2022-08-03T19:23:39;6.27;;;5.67;;